sensor_id;sensor_type;location;lat;lon;timestamp;pressure;altitude;pressure_sealevel;temperature;humidity
13314;BME280;6725;48.112;11.604;2023-06-01T00:01:42;95386.41;;;16.29;100.00
13314;BME280;6725;48.112;11.604;2023-06-01T00:04:07;95386.06;;;16.27;100.00
13314;BME280;6725;48.112;11.604;2023-06-01T00:06:33;95384.59;;;16.22;100.00
13314;BME280;6725;48.112;11.604;2023-06-01T00:08:59;95382.09;;;16.15;100.00
13314;BME280;6725;48.112;11.604;2023-06-01T00:11:25;95385.72;;;16.12;100.00
13314;BME280;6725;48.112;11.604;2023-06-01T00:13:51;95391.22;;;16.12;100.00
13314;BME280;6725;48.112;11.604;2023-06-01T00:16:17;95379.97;;;16.07;100.00
13314;BME280;6725;48.112;11.604;2023-06-01T00:18:43;95384.59;;;15.97;100.00
13314;BME280;6725;48.112;11.604;2023-06-01T00:21:09;95383.81;;;15.97;100.00
13314;BME280;6725;48.112;11.604;2023-06-01T00:23:34;95380.81;;;15.91;100.00
13314;BME280;6725;48.112;11.604;2023-06-01T00:26:00;95384.00;;;15.90;100.00
13314;BME280;6725;48.112;11.604;2023-06-01T00:28:26;95380.16;;;15.87;100.00
13314;BME280;6725;48.112;11.604;2023-06-01T00:30:52;95388.97;;;15.82;100.00
13314;BME280;6725;48.112;11.604;2023-06-01T00:33:19;95388.28;;;15.78;100.00
13314;BME280;6725;48.112;11.604;2023-06-01T00:35:44;95384.84;;;15.74;100.00
13314;BME280;6725;48.112;11.604;2023-06-01T00:38:10;95383.00;;;15.71;100.00
13314;BME280;6725;48.112;11.604;2023-06-01T00:40:35;95381.78;;;15.72;100.00
13314;BME280;6725;48.112;11.604;2023-06-01T00:43:00;95374.69;;;15.59;100.00
13314;BME280;6725;48.112;11.604;2023-06-01T00:45:26;95377.53;;;15.55;100.00
13314;BME280;6725;48.112;11.604;2023-06-01T00:47:52;95375.81;;;15.45;100.00
13314;BME280;6725;48.112;11.604;2023-06-01T00:50:18;95369.13;;;15.46;100.00
13314;BME280;6725;48.112;11.604;2023-06-01T00:52:45;95370.69;;;15.47;100.00
13314;BME280;6725;48.112;11.604;2023-06-01T00:55:11;95365.03;;;15.38;100.00
13314;BME280;6725;48.112;11.604;2023-06-01T00:57:38;95368.66;;;15.35;100.00
13314;BME280;6725;48.112;11.604;2023-06-01T01:00:04;95367.94;;;15.31;100.00
13314;BME280;6725;48.112;11.604;2023-06-01T01:02:40;95371.63;;;15.25;100.00
13314;BME280;6725;48.112;11.604;2023-06-01T01:05:06;95376.38;;;15.24;100.00
13314;BME280;6725;48.112;11.604;2023-06-01T01:08:00;95377.25;;;15.21;100.00
13314;BME280;6725;48.112;11.604;2023-06-01T01:11:14;95374.16;;;15.19;100.00
13314;BME280;6725;48.112;11.604;2023-06-01T01:13:26;95370.81;;;15.12;100.00
13314;BME280;6725;48.112;11.604;2023-06-01T01:16:07;95372.47;;;15.09;100.00
13314;BME280;6725;48.112;11.604;2023-06-01T01:18:40;95379.06;;;15.12;100.00
13314;BME280;6725;48.112;11.604;2023-06-01T01:21:09;95366.97;;;15.09;100.00
13314;BME280;6725;48.112;11.604;2023-06-01T01:24:05;95362.75;;;15.05;100.00
13314;BME280;6725;48.112;11.604;2023-06-01T01:29:12;95358.91;;;15.02;100.00
13314;BME280;6725;48.112;11.604;2023-06-01T01:31:40;95362.16;;;14.97;100.00
13314;BME280;6725;48.112;11.604;2023-06-01T01:34:05;95363.78;;;14.95;100.00
13314;BME280;6725;48.112;11.604;2023-06-01T01:36:32;95359.25;;;14.88;100.00
13314;BME280;6725;48.112;11.604;2023-06-01T01:38:57;95357.78;;;14.84;100.00
13314;BME280;6725;48.112;11.604;2023-06-01T01:41:22;95367.75;;;14.78;100.00
13314;BME280;6725;48.112;11.604;2023-06-01T01:43:49;95363.81;;;14.79;100.00
13314;BME280;6725;48.112;11.604;2023-06-01T01:46:30;95366.22;;;14.77;100.00
13314;BME280;6725;48.112;11.604;2023-06-01T01:54:07;95363.72;;;14.66;100.00
13314;BME280;6725;48.112;11.604;2023-06-01T01:56:35;95359.09;;;14.63;100.00
13314;BME280;6725;48.112;11.604;2023-06-01T01:59:03;95372.47;;;14.61;100.00
13314;BME280;6725;48.112;11.604;2023-06-01T02:01:28;95361.47;;;14.61;100.00
13314;BME280;6725;48.112;11.604;2023-06-01T02:04:02;95366.22;;;14.61;100.00
13314;BME280;6725;48.112;11.604;2023-06-01T02:06:27;95370.94;;;14.60;100.00
13314;BME280;6725;48.112;11.604;2023-06-01T02:08:53;95368.72;;;14.55;100.00
13314;BME280;6725;48.112;11.604;2023-06-01T02:11:18;95366.47;;;14.50;100.00
13314;BME280;6725;48.112;11.604;2023-06-01T02:13:44;95370.50;;;14.46;100.00
13314;BME280;6725;48.112;11.604;2023-06-01T02:16:09;95371.78;;;14.41;100.00
13314;BME280;6725;48.112;11.604;2023-06-01T02:18:34;95372.31;;;14.36;100.00
13314;BME280;6725;48.112;11.604;2023-06-01T02:21:04;95372.47;;;14.29;100.00
13314;BME280;6725;48.112;11.604;2023-06-01T02:23:29;95365.56;;;14.21;100.00
13314;BME280;6725;48.112;11.604;2023-06-01T02:25:55;95357.97;;;14.09;100.00
13314;BME280;6725;48.112;11.604;2023-06-01T02:28:20;95356.78;;;14.10;100.00
13314;BME280;6725;48.112;11.604;2023-06-01T02:30:46;95352.84;;;14.11;100.00
13314;BME280;6725;48.112;11.604;2023-06-01T02:33:11;95356.00;;;14.10;100.00
13314;BME280;6725;48.112;11.604;2023-06-01T02:35:36;95352.47;;;14.09;100.00
13314;BME280;6725;48.112;11.604;2023-06-01T02:38:02;95361.13;;;14.08;100.00
13314;BME280;6725;48.112;11.604;2023-06-01T02:40:27;95352.16;;;14.07;100.00
13314;BME280;6725;48.112;11.604;2023-06-01T02:42:53;95346.28;;;14.05;100.00
13314;BME280;6725;48.112;11.604;2023-06-01T02:45:18;95353.84;;;14.01;100.00
13314;BME280;6725;48.112;11.604;2023-06-01T02:47:43;95353.16;;;13.97;100.00
13314;BME280;6725;48.112;11.604;2023-06-01T02:50:10;95346.53;;;13.95;100.00
13314;BME280;6725;48.112;11.604;2023-06-01T02:52:35;95349.28;;;13.95;100.00
13314;BME280;6725;48.112;11.604;2023-06-01T02:55:01;95350.13;;;13.92;100.00
13314;BME280;6725;48.112;11.604;2023-06-01T02:57:26;95342.69;;;13.92;100.00
13314;BME280;6725;48.112;11.604;2023-06-01T02:59:51;95347.44;;;13.88;100.00
13314;BME280;6725;48.112;11.604;2023-06-01T03:02:17;95345.16;;;13.87;100.00
13314;BME280;6725;48.112;11.604;2023-06-01T03:04:42;95352.94;;;13.88;100.00
13314;BME280;6725;48.112;11.604;2023-06-01T03:07:08;95346.69;;;13.88;100.00
13314;BME280;6725;48.112;11.604;2023-06-01T03:09:34;95349.44;;;13.88;100.00
13314;BME280;6725;48.112;11.604;2023-06-01T03:11:59;95356.13;;;13.87;100.00
13314;BME280;6725;48.112;11.604;2023-06-01T03:14:26;95359.63;;;13.87;100.00
13314;BME280;6725;48.112;11.604;2023-06-01T03:16:51;95359.31;;;13.85;100.00
13314;BME280;6725;48.112;11.604;2023-06-01T03:19:17;95357.31;;;13.86;100.00
13314;BME280;6725;48.112;11.604;2023-06-01T03:21:42;95352.94;;;13.88;100.00
13314;BME280;6725;48.112;11.604;2023-06-01T03:24:07;95352.94;;;13.88;100.00
13314;BME280;6725;48.112;11.604;2023-06-01T03:26:33;95351.75;;;13.89;100.00
13314;BME280;6725;48.112;11.604;2023-06-01T03:28:59;95359.91;;;13.93;100.00
13314;BME280;6725;48.112;11.604;2023-06-01T03:31:25;95350.72;;;13.99;100.00
13314;BME280;6725;48.112;11.604;2023-06-01T03:33:51;95347.09;;;14.06;100.00
13314;BME280;6725;48.112;11.604;2023-06-01T03:36:17;95354.66;;;14.18;100.00
13314;BME280;6725;48.112;11.604;2023-06-01T03:38:42;95352.88;;;14.27;100.00
13314;BME280;6725;48.112;11.604;2023-06-01T03:41:08;95351.34;;;14.42;100.00
13314;BME280;6725;48.112;11.604;2023-06-01T03:43:33;95365.88;;;14.59;100.00
13314;BME280;6725;48.112;11.604;2023-06-01T03:45:59;95358.06;;;14.73;100.00
13314;BME280;6725;48.112;11.604;2023-06-01T03:48:25;95366.66;;;14.91;100.00
13314;BME280;6725;48.112;11.604;2023-06-01T03:50:50;95358.91;;;15.02;100.00
13314;BME280;6725;48.112;11.604;2023-06-01T03:53:16;95365.28;;;15.28;100.00
13314;BME280;6725;48.112;11.604;2023-06-01T03:55:41;95369.66;;;15.41;100.00
13314;BME280;6725;48.112;11.604;2023-06-01T03:58:06;95366.00;;;15.60;100.00
13314;BME280;6725;48.112;11.604;2023-06-01T04:00:32;95368.00;;;15.72;100.00
13314;BME280;6725;48.112;11.604;2023-06-01T04:02:58;95364.97;;;15.95;100.00
13314;BME280;6725;48.112;11.604;2023-06-01T04:05:26;95368.53;;;16.08;100.00
13314;BME280;6725;48.112;11.604;2023-06-01T04:07:52;95365.09;;;16.29;100.00
13314;BME280;6725;48.112;11.604;2023-06-01T04:10:19;95369.69;;;16.49;100.00
13314;BME280;6725;48.112;11.604;2023-06-01T04:12:46;95366.66;;;16.81;100.00
13314;BME280;6725;48.112;11.604;2023-06-01T04:15:13;95374.88;;;17.06;100.00
13314;BME280;6725;48.112;11.604;2023-06-01T04:17:39;95370.19;;;17.28;100.00
13314;BME280;6725;48.112;11.604;2023-06-01T04:20:05;95373.28;;;17.42;100.00
13314;BME280;6725;48.112;11.604;2023-06-01T04:22:33;95368.34;;;17.59;100.00
13314;BME280;6725;48.112;11.604;2023-06-01T04:24:59;95382.97;;;17.90;100.00
13314;BME280;6725;48.112;11.604;2023-06-01T04:27:24;95381.13;;;18.08;100.00
13314;BME280;6725;48.112;11.604;2023-06-01T04:29:51;95373.69;;;18.27;100.00
13314;BME280;6725;48.112;11.604;2023-06-01T04:32:18;95376.03;;;18.59;100.00
13314;BME280;6725;48.112;11.604;2023-06-01T04:34:49;95376.09;;;18.86;100.00
13314;BME280;6725;48.112;11.604;2023-06-01T04:37:18;95384.16;;;19.02;100.00
13314;BME280;6725;48.112;11.604;2023-06-01T04:39:49;95376.78;;;19.08;100.00
13314;BME280;6725;48.112;11.604;2023-06-01T04:42:16;95377.09;;;19.19;100.00
13314;BME280;6725;48.112;11.604;2023-06-01T04:44:44;95375.94;;;19.47;100.00
13314;BME280;6725;48.112;11.604;2023-06-01T04:47:10;95376.56;;;19.51;100.00
13314;BME280;6725;48.112;11.604;2023-06-01T04:49:35;95369.16;;;19.48;100.00
13314;BME280;6725;48.112;11.604;2023-06-01T04:52:07;95383.03;;;19.57;100.00
13314;BME280;6725;48.112;11.604;2023-06-01T04:54:32;95382.41;;;19.62;100.00
13314;BME280;6725;48.112;11.604;2023-06-01T04:56:58;95378.38;;;19.81;100.00
13314;BME280;6725;48.112;11.604;2023-06-01T04:59:23;95384.25;;;20.19;100.00
13314;BME280;6725;48.112;11.604;2023-06-01T05:01:48;95373.91;;;20.29;100.00
13314;BME280;6725;48.112;11.604;2023-06-01T05:04:14;95366.19;;;20.74;100.00
13314;BME280;6725;48.112;11.604;2023-06-01T05:06:39;95370.59;;;21.13;100.00
13314;BME280;6725;48.112;11.604;2023-06-01T05:09:05;95379.41;;;20.79;100.00
13314;BME280;6725;48.112;11.604;2023-06-01T05:11:30;95374.03;;;21.55;100.00
13314;BME280;6725;48.112;11.604;2023-06-01T05:13:56;95371.56;;;21.95;100.00
13314;BME280;6725;48.112;11.604;2023-06-01T05:16:26;95374.38;;;22.24;100.00
13314;BME280;6725;48.112;11.604;2023-06-01T05:18:52;95376.69;;;22.40;100.00
13314;BME280;6725;48.112;11.604;2023-06-01T05:21:17;95377.75;;;22.72;100.00
13314;BME280;6725;48.112;11.604;2023-06-01T05:23:43;95374.91;;;23.01;100.00
13314;BME280;6725;48.112;11.604;2023-06-01T05:26:08;95391.28;;;22.35;100.00
13314;BME280;6725;48.112;11.604;2023-06-01T05:28:34;95382.94;;;23.14;100.00
13314;BME280;6725;48.112;11.604;2023-06-01T05:31:01;95379.06;;;23.26;100.00
13314;BME280;6725;48.112;11.604;2023-06-01T05:33:26;95383.22;;;23.16;100.00
13314;BME280;6725;48.112;11.604;2023-06-01T05:35:51;95378.53;;;23.07;100.00
13314;BME280;6725;48.112;11.604;2023-06-01T05:38:18;95380.63;;;23.27;100.00
13314;BME280;6725;48.112;11.604;2023-06-01T05:40:44;95382.19;;;23.68;100.00
13314;BME280;6725;48.112;11.604;2023-06-01T05:43:09;95380.63;;;23.47;100.00
13314;BME280;6725;48.112;11.604;2023-06-01T05:45:35;95385.34;;;24.21;100.00
13314;BME280;6725;48.112;11.604;2023-06-01T05:48:00;95387.06;;;23.53;100.00
13314;BME280;6725;48.112;11.604;2023-06-01T05:50:25;95376.03;;;23.44;100.00
13314;BME280;6725;48.112;11.604;2023-06-01T05:52:51;95376.34;;;24.11;99.53
13314;BME280;6725;48.112;11.604;2023-06-01T05:55:17;95379.53;;;24.50;94.92
13314;BME280;6725;48.112;11.604;2023-06-01T05:57:42;95386.91;;;23.62;98.99
13314;BME280;6725;48.112;11.604;2023-06-01T06:00:08;95384.94;;;23.88;97.78
13314;BME280;6725;48.112;11.604;2023-06-01T06:02:38;95388.25;;;23.46;100.00
13314;BME280;6725;48.112;11.604;2023-06-01T06:05:03;95377.34;;;24.34;99.67
13314;BME280;6725;48.112;11.604;2023-06-01T06:07:29;95389.31;;;24.91;93.78
13314;BME280;6725;48.112;11.604;2023-06-01T06:09:55;95386.13;;;25.09;89.81
13314;BME280;6725;48.112;11.604;2023-06-01T06:12:20;95389.44;;;25.44;89.45
13314;BME280;6725;48.112;11.604;2023-06-01T06:14:46;95386.97;;;25.57;85.31
13314;BME280;6725;48.112;11.604;2023-06-01T06:17:11;95387.78;;;25.74;82.16
13314;BME280;6725;48.112;11.604;2023-06-01T06:19:36;95389.78;;;25.63;82.31
13314;BME280;6725;48.112;11.604;2023-06-01T06:22:02;95387.59;;;25.83;83.04
13314;BME280;6725;48.112;11.604;2023-06-01T06:24:27;95384.63;;;25.98;81.04
13314;BME280;6725;48.112;11.604;2023-06-01T06:26:53;95387.53;;;26.42;82.39
13314;BME280;6725;48.112;11.604;2023-06-01T06:29:18;95393.69;;;27.17;75.29
13314;BME280;6725;48.112;11.604;2023-06-01T06:31:44;95395.41;;;25.63;80.55
13314;BME280;6725;48.112;11.604;2023-06-01T06:34:11;95395.25;;;25.04;85.62
13314;BME280;6725;48.112;11.604;2023-06-01T06:36:38;95394.56;;;26.04;83.83
13314;BME280;6725;48.112;11.604;2023-06-01T06:39:03;95399.25;;;26.40;78.97
13314;BME280;6725;48.112;11.604;2023-06-01T06:41:28;95397.28;;;27.18;75.39
13314;BME280;6725;48.112;11.604;2023-06-01T06:43:54;95391.16;;;27.14;76.90
13314;BME280;6725;48.112;11.604;2023-06-01T06:46:19;95392.28;;;27.95;71.21
13314;BME280;6725;48.112;11.604;2023-06-01T06:48:45;95399.31;;;27.39;70.81
13314;BME280;6725;48.112;11.604;2023-06-01T06:51:10;95388.75;;;27.78;69.86
13314;BME280;6725;48.112;11.604;2023-06-01T06:53:35;95394.38;;;27.67;70.43
13314;BME280;6725;48.112;11.604;2023-06-01T06:56:01;95391.56;;;28.36;68.36
13314;BME280;6725;48.112;11.604;2023-06-01T06:58:26;95393.09;;;29.12;64.90
13314;BME280;6725;48.112;11.604;2023-06-01T07:00:52;95396.44;;;28.76;66.96
13314;BME280;6725;48.112;11.604;2023-06-01T07:03:18;95388.94;;;29.19;64.12
13314;BME280;6725;48.112;11.604;2023-06-01T07:05:43;95388.22;;;29.42;62.67
13314;BME280;6725;48.112;11.604;2023-06-01T07:08:11;95397.94;;;29.71;62.39
13314;BME280;6725;48.112;11.604;2023-06-01T07:10:36;95386.06;;;29.54;62.08
13314;BME280;6725;48.112;11.604;2023-06-01T07:13:01;95385.56;;;29.98;60.26
13314;BME280;6725;48.112;11.604;2023-06-01T07:15:27;95389.28;;;30.30;58.91
13314;BME280;6725;48.112;11.604;2023-06-01T07:17:52;95383.06;;;30.13;59.38
13314;BME280;6725;48.112;11.604;2023-06-01T07:20:18;95390.94;;;30.38;58.18
13314;BME280;6725;48.112;11.604;2023-06-01T07:22:43;95395.31;;;31.08;55.89
13314;BME280;6725;48.112;11.604;2023-06-01T07:25:09;95390.00;;;30.67;56.20
13314;BME280;6725;48.112;11.604;2023-06-01T07:27:38;95398.19;;;31.21;52.78
13314;BME280;6725;48.112;11.604;2023-06-01T07:30:09;95392.72;;;31.10;54.25
13314;BME280;6725;48.112;11.604;2023-06-01T07:32:34;95384.34;;;31.49;52.31
13314;BME280;6725;48.112;11.604;2023-06-01T07:35:00;95383.56;;;30.54;55.35
13314;BME280;6725;48.112;11.604;2023-06-01T07:37:26;95388.38;;;30.59;55.44
13314;BME280;6725;48.112;11.604;2023-06-01T07:39:53;95390.22;;;30.14;55.89
13314;BME280;6725;48.112;11.604;2023-06-01T07:42:19;95390.63;;;29.57;61.22
13314;BME280;6725;48.112;11.604;2023-06-01T07:44:45;95391.28;;;30.72;55.98
13314;BME280;6725;48.112;11.604;2023-06-01T07:47:11;95390.00;;;31.49;53.85
13314;BME280;6725;48.112;11.604;2023-06-01T07:49:36;95395.34;;;32.18;49.62
13314;BME280;6725;48.112;11.604;2023-06-01T07:52:03;95397.56;;;32.71;48.62
13314;BME280;6725;48.112;11.604;2023-06-01T07:54:28;95393.09;;;32.03;50.74
13314;BME280;6725;48.112;11.604;2023-06-01T07:56:54;95392.94;;;32.94;47.69
13314;BME280;6725;48.112;11.604;2023-06-01T07:59:20;95395.06;;;31.06;49.61
13314;BME280;6725;48.112;11.604;2023-06-01T08:01:48;95385.38;;;30.33;54.39
13314;BME280;6725;48.112;11.604;2023-06-01T08:04:13;95388.63;;;31.24;52.42
13314;BME280;6725;48.112;11.604;2023-06-01T08:06:39;95394.72;;;29.56;55.92
13314;BME280;6725;48.112;11.604;2023-06-01T08:09:06;95388.66;;;29.76;55.76
13314;BME280;6725;48.112;11.604;2023-06-01T08:11:32;95383.34;;;31.02;52.65
13314;BME280;6725;48.112;11.604;2023-06-01T08:13:57;95383.66;;;30.30;58.13
13314;BME280;6725;48.112;11.604;2023-06-01T08:16:25;95385.31;;;31.39;52.04
13314;BME280;6725;48.112;11.604;2023-06-01T08:18:51;95384.72;;;30.27;54.60
13314;BME280;6725;48.112;11.604;2023-06-01T08:21:17;95389.13;;;30.22;52.97
13314;BME280;6725;48.112;11.604;2023-06-01T08:23:43;95383.72;;;31.56;50.48
13314;BME280;6725;48.112;11.604;2023-06-01T08:26:08;95384.38;;;31.75;49.16
13314;BME280;6725;48.112;11.604;2023-06-01T08:28:33;95388.44;;;31.93;49.08
13314;BME280;6725;48.112;11.604;2023-06-01T08:30:59;95381.88;;;31.14;51.29
13314;BME280;6725;48.112;11.604;2023-06-01T08:33:24;95376.13;;;32.03;47.75
13314;BME280;6725;48.112;11.604;2023-06-01T08:35:49;95381.13;;;31.71;49.38
13314;BME280;6725;48.112;11.604;2023-06-01T08:38:15;95386.16;;;31.02;52.26
13314;BME280;6725;48.112;11.604;2023-06-01T08:40:40;95386.88;;;29.73;56.75
13314;BME280;6725;48.112;11.604;2023-06-01T08:43:16;95380.41;;;31.39;52.71
13314;BME280;6725;48.112;11.604;2023-06-01T08:45:43;95388.97;;;32.17;49.51
13314;BME280;6725;48.112;11.604;2023-06-01T08:48:15;95378.28;;;32.49;47.33
13314;BME280;6725;48.112;11.604;2023-06-01T08:50:40;95377.06;;;30.22;50.42
13314;BME280;6725;48.112;11.604;2023-06-01T08:53:06;95376.19;;;29.90;54.22
13314;BME280;6725;48.112;11.604;2023-06-01T08:55:31;95381.72;;;29.77;57.37
13314;BME280;6725;48.112;11.604;2023-06-01T08:57:57;95377.03;;;29.07;62.33
13314;BME280;6725;48.112;11.604;2023-06-01T09:00:23;95378.16;;;30.74;56.92
13314;BME280;6725;48.112;11.604;2023-06-01T09:02:49;95374.56;;;31.50;52.57
13314;BME280;6725;48.112;11.604;2023-06-01T09:05:14;95374.06;;;31.20;52.81
13314;BME280;6725;48.112;11.604;2023-06-01T09:07:42;95372.53;;;31.64;52.76
13314;BME280;6725;48.112;11.604;2023-06-01T09:10:07;95375.91;;;31.17;53.22
13314;BME280;6725;48.112;11.604;2023-06-01T09:12:33;95373.59;;;30.16;54.43
13314;BME280;6725;48.112;11.604;2023-06-01T09:15:15;95366.47;;;31.15;53.89
13314;BME280;6725;48.112;11.604;2023-06-01T09:17:45;95377.41;;;32.41;50.12
13314;BME280;6725;48.112;11.604;2023-06-01T09:20:28;95371.78;;;31.63;51.54
13314;BME280;6725;48.112;11.604;2023-06-01T09:22:54;95372.84;;;31.47;52.64
13314;BME280;6725;48.112;11.604;2023-06-01T09:25:27;95375.03;;;32.32;51.24
13314;BME280;6725;48.112;11.604;2023-06-01T09:27:54;95374.19;;;30.46;54.39
13314;BME280;6725;48.112;11.604;2023-06-01T09:30:22;95373.25;;;31.38;54.51
13314;BME280;6725;48.112;11.604;2023-06-01T09:32:49;95375.88;;;29.75;58.87
13314;BME280;6725;48.112;11.604;2023-06-01T09:35:41;95370.31;;;30.49;58.40
13314;BME280;6725;48.112;11.604;2023-06-01T09:38:08;95378.69;;;30.36;55.96
13314;BME280;6725;48.112;11.604;2023-06-01T09:40:33;95371.06;;;31.31;55.00
13314;BME280;6725;48.112;11.604;2023-06-01T09:43:00;95370.22;;;30.36;54.33
13314;BME280;6725;48.112;11.604;2023-06-01T09:45:25;95369.03;;;31.00;54.54
13314;BME280;6725;48.112;11.604;2023-06-01T09:47:52;95364.69;;;30.99;54.54
13314;BME280;6725;48.112;11.604;2023-06-01T09:50:35;95360.78;;;30.52;57.01
13314;BME280;6725;48.112;11.604;2023-06-01T09:53:01;95365.13;;;29.73;59.14
13314;BME280;6725;48.112;11.604;2023-06-01T09:55:27;95359.44;;;29.31;60.00
13314;BME280;6725;48.112;11.604;2023-06-01T09:57:53;95357.19;;;30.33;58.83
13314;BME280;6725;48.112;11.604;2023-06-01T10:00:38;95358.63;;;30.58;57.14
13314;BME280;6725;48.112;11.604;2023-06-01T10:03:04;95352.97;;;30.58;52.38
13314;BME280;6725;48.112;11.604;2023-06-01T10:05:31;95352.19;;;29.83;56.94
13314;BME280;6725;48.112;11.604;2023-06-01T10:07:59;95347.03;;;29.39;56.91
13314;BME280;6725;48.112;11.604;2023-06-01T10:10:25;95341.09;;;29.91;55.87
13314;BME280;6725;48.112;11.604;2023-06-01T10:12:51;95342.00;;;30.73;55.62
13314;BME280;6725;48.112;11.604;2023-06-01T10:15:16;95336.28;;;31.10;53.38
13314;BME280;6725;48.112;11.604;2023-06-01T10:17:42;95342.94;;;30.44;55.07
13314;BME280;6725;48.112;11.604;2023-06-01T10:20:09;95338.66;;;31.19;51.04
13314;BME280;6725;48.112;11.604;2023-06-01T10:22:39;95331.84;;;29.48;57.02
13314;BME280;6725;48.112;11.604;2023-06-01T10:25:08;95333.38;;;29.73;55.04
13314;BME280;6725;48.112;11.604;2023-06-01T10:27:39;95335.16;;;30.13;58.69
13314;BME280;6725;48.112;11.604;2023-06-01T10:30:08;95331.31;;;30.84;54.46
13314;BME280;6725;48.112;11.604;2023-06-01T10:35:06;95338.75;;;31.58;49.99
13314;BME280;6725;48.112;11.604;2023-06-01T10:37:32;95343.94;;;30.28;50.59
13314;BME280;6725;48.112;11.604;2023-06-01T10:42:45;95331.22;;;30.40;51.07
13314;BME280;6725;48.112;11.604;2023-06-01T10:48:12;95341.78;;;31.60;49.31
13314;BME280;6725;48.112;11.604;2023-06-01T10:50:39;95321.97;;;31.21;49.29
13314;BME280;6725;48.112;11.604;2023-06-01T10:53:26;95328.22;;;30.14;50.92
13314;BME280;6725;48.112;11.604;2023-06-01T10:58:42;95322.00;;;31.34;48.38
13314;BME280;6725;48.112;11.604;2023-06-01T11:01:08;95319.88;;;31.22;47.32
13314;BME280;6725;48.112;11.604;2023-06-01T11:03:48;95331.91;;;28.89;52.05
13314;BME280;6725;48.112;11.604;2023-06-01T11:06:35;95308.25;;;29.51;51.50
13314;BME280;6725;48.112;11.604;2023-06-01T11:09:07;95314.25;;;29.18;55.09
13314;BME280;6725;48.112;11.604;2023-06-01T11:14:19;95303.75;;;28.65;55.02
13314;BME280;6725;48.112;11.604;2023-06-01T11:16:44;95303.22;;;29.44;54.79
13314;BME280;6725;48.112;11.604;2023-06-01T11:19:10;95298.28;;;30.11;50.09
13314;BME280;6725;48.112;11.604;2023-06-01T11:21:42;95305.00;;;28.93;53.30
13314;BME280;6725;48.112;11.604;2023-06-01T11:24:14;95296.53;;;28.99;55.28
13314;BME280;6725;48.112;11.604;2023-06-01T11:26:48;95297.31;;;30.27;50.54
13314;BME280;6725;48.112;11.604;2023-06-01T11:29:18;95283.78;;;30.75;50.91
13314;BME280;6725;48.112;11.604;2023-06-01T11:31:47;95289.31;;;30.31;49.55
13314;BME280;6725;48.112;11.604;2023-06-01T11:34:14;95286.13;;;29.18;52.28
13314;BME280;6725;48.112;11.604;2023-06-01T11:36:45;95283.31;;;29.42;50.40
13314;BME280;6725;48.112;11.604;2023-06-01T11:39:27;95279.97;;;28.90;53.11
13314;BME280;6725;48.112;11.604;2023-06-01T11:44:36;95272.88;;;29.98;51.39
13314;BME280;6725;48.112;11.604;2023-06-01T11:47:03;95270.88;;;29.08;54.30
13314;BME280;6725;48.112;11.604;2023-06-01T11:49:29;95274.38;;;28.25;56.46
13314;BME280;6725;48.112;11.604;2023-06-01T11:51:55;95283.19;;;27.53;59.57
13314;BME280;6725;48.112;11.604;2023-06-01T11:54:25;95284.09;;;27.04;61.54
13314;BME280;6725;48.112;11.604;2023-06-01T11:56:52;95282.34;;;26.79;62.57
13314;BME280;6725;48.112;11.604;2023-06-01T11:59:18;95282.59;;;26.43;65.62
13314;BME280;6725;48.112;11.604;2023-06-01T12:01:48;95272.63;;;26.03;66.58
13314;BME280;6725;48.112;11.604;2023-06-01T12:04:21;95262.97;;;26.15;69.04
13314;BME280;6725;48.112;11.604;2023-06-01T12:06:47;95270.13;;;26.49;65.37
13314;BME280;6725;48.112;11.604;2023-06-01T12:09:15;95261.22;;;26.34;67.68
13314;BME280;6725;48.112;11.604;2023-06-01T12:11:41;95268.84;;;26.50;64.40
13314;BME280;6725;48.112;11.604;2023-06-01T12:14:10;95261.97;;;26.73;63.89
13314;BME280;6725;48.112;11.604;2023-06-01T12:16:56;95264.03;;;26.67;65.65
13314;BME280;6725;48.112;11.604;2023-06-01T12:19:24;95249.16;;;25.79;67.04
13314;BME280;6725;48.112;11.604;2023-06-01T12:21:51;95261.94;;;26.51;66.56
13314;BME280;6725;48.112;11.604;2023-06-01T12:24:37;95248.72;;;26.35;65.05
13314;BME280;6725;48.112;11.604;2023-06-01T12:27:12;95258.41;;;26.56;66.03
13314;BME280;6725;48.112;11.604;2023-06-01T12:29:44;95260.44;;;26.17;67.39
13314;BME280;6725;48.112;11.604;2023-06-01T12:32:11;95249.75;;;26.65;66.23
13314;BME280;6725;48.112;11.604;2023-06-01T12:34:38;95240.56;;;27.55;63.09
13314;BME280;6725;48.112;11.604;2023-06-01T12:37:22;95244.31;;;27.68;59.51
13314;BME280;6725;48.112;11.604;2023-06-01T12:39:55;95245.47;;;27.43;60.86
13314;BME280;6725;48.112;11.604;2023-06-01T12:42:35;95246.56;;;27.18;59.94
13314;BME280;6725;48.112;11.604;2023-06-01T12:45:02;95240.81;;;26.72;61.52
13314;BME280;6725;48.112;11.604;2023-06-01T12:47:34;95235.09;;;27.16;61.42
13314;BME280;6725;48.112;11.604;2023-06-01T12:50:05;95233.69;;;26.71;62.79
13314;BME280;6725;48.112;11.604;2023-06-01T12:52:30;95232.94;;;26.65;60.65
13314;BME280;6725;48.112;11.604;2023-06-01T12:54:55;95227.31;;;26.54;64.86
13314;BME280;6725;48.112;11.604;2023-06-01T12:57:22;95227.84;;;26.25;65.27
13314;BME280;6725;48.112;11.604;2023-06-01T12:59:47;95229.34;;;26.26;66.99
13314;BME280;6725;48.112;11.604;2023-06-01T13:02:13;95229.31;;;25.93;64.75
13314;BME280;6725;48.112;11.604;2023-06-01T13:04:39;95230.91;;;26.22;64.65
13314;BME280;6725;48.112;11.604;2023-06-01T13:07:04;95222.22;;;26.69;62.33
13314;BME280;6725;48.112;11.604;2023-06-01T13:09:30;95224.22;;;26.96;61.30
13314;BME280;6725;48.112;11.604;2023-06-01T13:11:55;95228.50;;;27.08;60.12
13314;BME280;6725;48.112;11.604;2023-06-01T13:14:20;95212.53;;;26.48;61.78
13314;BME280;6725;48.112;11.604;2023-06-01T13:16:46;95206.88;;;26.81;64.26
13314;BME280;6725;48.112;11.604;2023-06-01T13:19:11;95218.69;;;26.30;63.52
13314;BME280;6725;48.112;11.604;2023-06-01T13:21:37;95217.66;;;26.33;65.02